4NK1 weather

Public forecast

Using degrees Fahrenheit for public forecast. Weather courtesy of forecast.io.

Closest aviation weather report (METAR) to B-Ville Airpark

Closest report is Syracuse Hancock International Airport, 9.2 nm (17.1 km) ESE. Retrieved 2020/08/12 11:54 UTC (7 minutes ago):

KSYR 121154Z 27004KT 10SM FEW160 SCT180 BKN250 23/17 A3007 RMK AO2 SLP178 70054 T02280167 10233 20200 53015

Closest aviation forecast (TAF) to B-Ville Airpark

Closest forecast is Syracuse Hancock International Airport, 9.2 nm (17.1 km) ESE. Retrieved 2020/08/12 12:36 UTC (0 seconds ago):

TAF KSYR 121135Z 1212/1312 VRB03KT P6SM SCT035 FM121500 30006KT P6SM FEW250